createdAt,value
2023-03-06T00:00:45.490Z,100677.22
2023-03-06T00:03:47.054Z,100679.81
2023-03-06T00:06:48.594Z,100679.81
2023-03-06T00:09:49.990Z,100678.94
2023-03-06T00:12:53.064Z,100678.06
2023-03-06T00:15:54.514Z,100680.53
2023-03-06T00:18:55.931Z,100686.41
2023-03-06T00:21:57.351Z,100689.72
2023-03-06T00:24:58.786Z,100689.78
2023-03-06T00:28:00.145Z,100698.25
2023-03-06T00:31:02.547Z,100694.91
2023-03-06T00:34:04.228Z,100688.13
2023-03-06T00:37:05.614Z,100697.47
2023-03-06T00:40:10.325Z,100694.97
2023-03-06T00:43:12.920Z,100688.16
2023-03-06T00:46:14.292Z,100682.28
2023-03-06T00:49:15.687Z,100687.34
2023-03-06T00:52:17.178Z,100685.63
2023-03-06T00:55:18.584Z,100685.56
2023-03-06T00:58:20.575Z,100688.19
2023-03-06T01:01:21.996Z,100689.09
2023-03-06T01:04:25.232Z,100675.53
2023-03-06T01:07:26.691Z,100678.09
2023-03-06T01:10:28.648Z,100675.47
2023-03-06T01:13:30.050Z,100678.03
2023-03-06T01:16:31.538Z,100672.09
2023-03-06T01:19:33.105Z,100659.38
2023-03-06T01:22:34.497Z,100661.97
2023-03-06T01:25:35.886Z,100653.47
2023-03-06T01:28:37.635Z,100657.69
2023-03-06T01:31:39.205Z,100653.50
2023-03-06T01:34:40.656Z,100652.66
2023-03-06T01:37:42.141Z,100649.19
2023-03-06T01:40:43.567Z,100655.09
2023-03-06T01:43:46.527Z,100649.16
2023-03-06T01:46:48.068Z,100649.09
2023-03-06T01:49:49.583Z,100645.69
2023-03-06T01:52:53.928Z,100638.09
2023-03-06T01:55:56.572Z,100639.81
2023-03-06T01:58:58.532Z,100638.94
2023-03-06T02:02:02.378Z,100638.94
2023-03-06T02:05:07.013Z,100628.72
2023-03-06T02:08:11.469Z,100627.91
2023-03-06T02:11:18.032Z,100637.25
2023-03-06T02:14:19.509Z,100633.84
2023-03-06T02:17:22.280Z,100637.31
2023-03-06T02:20:51.456Z,100639.13
2023-03-06T02:24:27.107Z,100644.50
2023-03-06T02:27:29.212Z,100637.66
2023-03-06T02:30:31.744Z,100637.66
2023-03-06T02:33:34.420Z,100632.88
2023-03-06T02:36:40.821Z,100616.63
2023-03-06T02:39:48.694Z,100611.53
2023-03-06T02:42:56.385Z,100600.59
2023-03-06T02:45:57.990Z,100594.69
2023-03-06T02:48:59.395Z,100589.63
2023-03-06T02:52:00.885Z,100587.13
2023-03-06T02:55:02.952Z,100587.19
2023-03-06T02:58:04.852Z,100578.75
2023-03-06T03:01:07.649Z,100571.19
2023-03-06T03:04:10.037Z,100576.28
2023-03-06T03:07:12.279Z,100569.53
2023-03-06T03:10:14.327Z,100564.47
2023-03-06T03:13:16.148Z,100558.63
2023-03-06T03:16:17.866Z,100558.63
2023-03-06T03:19:19.320Z,100559.50
2023-03-06T03:22:21.260Z,100550.25
2023-03-06T03:25:24.521Z,100550.28
2023-03-06T03:28:27.856Z,100553.72
2023-03-06T03:31:29.474Z,100547.81
2023-03-06T03:34:31.064Z,100540.22
2023-03-06T03:37:32.789Z,100551.19
2023-03-06T03:40:35.102Z,100538.56
2023-03-06T03:43:37.305Z,100537.72
2023-03-06T03:46:39.027Z,100536.06
2023-03-06T03:49:45.937Z,100539.50
2023-03-06T03:52:47.419Z,100540.38
2023-03-06T03:55:49.181Z,100538.66
2023-03-06T03:58:53.827Z,100530.22
2023-03-06T04:01:56.197Z,100529.41
2023-03-06T04:04:58.709Z,100535.31
2023-03-06T04:08:00.454Z,100530.25
2023-03-06T04:11:02.612Z,100522.63
2023-03-06T04:14:05.929Z,100528.56
2023-03-06T04:17:08.034Z,100526.97
2023-03-06T04:20:10.375Z,100526.13
2023-03-06T04:23:12.365Z,100524.47
2023-03-06T04:26:13.795Z,100521.91
2023-03-06T04:29:15.283Z,100513.47
2023-03-06T04:32:16.771Z,100513.47
2023-03-06T04:35:18.619Z,100505.03
2023-03-06T04:38:29.087Z,100498.31
2023-03-06T04:41:31.079Z,100511.91
2023-03-06T04:44:32.632Z,100501.88
2023-03-06T04:47:34.069Z,100506.13
2023-03-06T04:50:35.473Z,100502.75
2023-03-06T04:53:36.886Z,100500.31
2023-03-06T04:56:38.278Z,100499.53
2023-03-06T04:59:39.706Z,100496.16
2023-03-06T05:02:43.519Z,100493.59
2023-03-06T05:05:44.976Z,100493.66
2023-03-06T05:08:47.064Z,100494.53
2023-03-06T05:11:48.473Z,100500.53
2023-03-06T05:14:49.865Z,100495.50
2023-03-06T05:17:51.265Z,100487.06
2023-03-06T05:20:52.683Z,100494.72
2023-03-06T05:23:54.068Z,100493.09
2023-03-06T05:26:55.471Z,100485.47
2023-03-06T05:29:56.821Z,100482.09
2023-03-06T05:32:59.382Z,100482.06
2023-03-06T05:36:01.243Z,100477.81
2023-03-06T05:39:02.634Z,100478.63
2023-03-06T05:42:04.571Z,100473.47
2023-03-06T05:45:06.556Z,100465.81
2023-03-06T05:48:08.297Z,100475.00
2023-03-06T05:51:09.911Z,100478.25
2023-03-06T05:54:11.276Z,100464.66
2023-03-06T05:57:12.639Z,100462.06
2023-03-06T06:00:15.262Z,100464.56
2023-03-06T06:03:19.659Z,100460.28
2023-03-06T06:06:21.120Z,100466.16
2023-03-06T06:09:23.161Z,100466.94
2023-03-06T06:12:26.262Z,100470.28
2023-03-06T06:15:27.673Z,100475.34
2023-03-06T06:18:29.252Z,100479.53
2023-03-06T06:21:30.636Z,100476.94
2023-03-06T06:24:32.300Z,100475.22
2023-03-06T06:27:33.711Z,100482.78
2023-03-06T06:30:35.263Z,100492.03
2023-03-06T06:33:36.687Z,100485.28
2023-03-06T06:36:38.741Z,100480.94
2023-03-06T06:39:40.271Z,100487.63
2023-03-06T06:42:41.701Z,100476.59
2023-03-06T06:45:43.063Z,100479.88
2023-03-06T06:48:44.477Z,100481.53
2023-03-06T06:51:45.867Z,100478.06
2023-03-06T06:54:47.681Z,100483.06
2023-03-06T06:57:49.080Z,100471.97
2023-03-06T07:00:50.537Z,100475.31
2023-03-06T07:03:51.992Z,100471.03
2023-03-06T07:06:56.144Z,100481.94
2023-03-06T07:09:57.572Z,100483.56
2023-03-06T07:12:58.963Z,100478.31
2023-03-06T07:16:00.766Z,100470.66
2023-03-06T07:19:02.240Z,100464.72
2023-03-06T07:22:03.734Z,100477.75
2023-03-06T07:25:06.241Z,100475.50
2023-03-06T07:28:07.684Z,100468.56
2023-03-06T07:31:10.415Z,100465.47
2023-03-06T07:34:14.077Z,100464.13
2023-03-06T07:37:15.538Z,100457.53
2023-03-06T07:40:18.154Z,100466.13
2023-03-06T07:43:19.834Z,100469.25
2023-03-06T07:46:30.575Z,100475.34
2023-03-06T07:49:32.326Z,100472.47
2023-03-06T07:52:34.623Z,100476.81
2023-03-06T07:55:39.117Z,100477.91
2023-03-06T07:58:43.026Z,100480.84
2023-03-06T08:01:44.484Z,100484.28
2023-03-06T08:04:52.348Z,100483.59
2023-03-06T08:07:53.834Z,100482.03
2023-03-06T08:10:55.207Z,100490.84
2023-03-06T08:13:57.626Z,100489.31
2023-03-06T08:16:59.008Z,100494.19
2023-03-06T08:20:00.469Z,100501.13
2023-03-06T08:23:01.889Z,100495.28
2023-03-06T08:26:12.164Z,100507.31
2023-03-06T08:29:13.894Z,100504.94
2023-03-06T08:32:15.339Z,100502.50
2023-03-06T08:35:16.827Z,100508.13
2023-03-06T08:38:18.224Z,100505.06
2023-03-06T08:41:20.455Z,100504.88
2023-03-06T08:44:21.910Z,100502.09
2023-03-06T08:47:23.419Z,100511.78
2023-03-06T08:50:24.869Z,100510.63
2023-03-06T08:53:41.752Z,100511.53
2023-03-06T08:56:44.288Z,100509.16
2023-03-06T08:59:45.677Z,100507.47
2023-03-06T09:02:47.075Z,100502.53
2023-03-06T09:05:49.303Z,100501.91
2023-03-06T09:08:52.162Z,100500.91
2023-03-06T09:11:53.631Z,100503.63
2023-03-06T09:14:55.017Z,100496.72
2023-03-06T09:17:56.483Z,100497.34
2023-03-06T09:20:57.913Z,100496.13
2023-03-06T09:23:59.396Z,100494.88
2023-03-06T09:27:01.037Z,100497.34
2023-03-06T09:30:03.254Z,100495.94
2023-03-06T09:33:04.710Z,100492.34
2023-03-06T09:36:07.535Z,100499.03
2023-03-06T09:39:08.986Z,100497.56
2023-03-06T09:42:17.112Z,100497.84
2023-03-06T09:45:18.650Z,100496.19
2023-03-06T09:48:26.863Z,100500.13
2023-03-06T09:51:53.762Z,100498.97
2023-03-06T09:55:04.404Z,100491.53
2023-03-06T09:58:15.917Z,100495.22
2023-03-06T10:01:24.819Z,100497.81
2023-03-06T10:04:42.204Z,100492.06
2023-03-06T10:07:52.817Z,100490.50
2023-03-06T10:11:00.577Z,100490.69
2023-03-06T10:14:30.098Z,100489.75
2023-03-06T10:17:36.840Z,100481.91
2023-03-06T10:20:49.774Z,100480.81
2023-03-06T10:23:55.558Z,100487.38
2023-03-06T10:27:14.978Z,100476.34
2023-03-06T10:30:44.596Z,100478.34
2023-03-06T10:33:53.290Z,100468.47
2023-03-06T10:36:54.687Z,100465.53
2023-03-06T10:40:08.586Z,100462.66
2023-03-06T10:43:12.207Z,100457.41
2023-03-06T10:46:25.921Z,100463.91
2023-03-06T10:49:31.710Z,100466.09
2023-03-06T10:52:35.160Z,100457.25
2023-03-06T10:55:36.988Z,100460.84
2023-03-06T10:58:38.409Z,100455.72
2023-03-06T11:01:42.606Z,100454.91
2023-03-06T11:04:51.464Z,100455.34
2023-03-06T11:08:00.411Z,100455.94
2023-03-06T11:11:36.787Z,100448.31
2023-03-06T11:14:39.014Z,100450.00
2023-03-06T11:17:52.545Z,100438.94
2023-03-06T11:20:55.677Z,100443.53
2023-03-06T11:24:18.597Z,100448.59
2023-03-06T11:27:31.808Z,100442.38
2023-03-06T11:30:42.119Z,100452.44
2023-03-06T11:34:02.319Z,100439.06
2023-03-06T11:37:11.451Z,100435.28
2023-03-06T11:40:36.528Z,100430.09
2023-03-06T11:44:00.730Z,100421.16
2023-03-06T11:47:18.139Z,100420.75
2023-03-06T11:50:48.763Z,100421.66
2023-03-06T11:53:50.228Z,100430.38
2023-03-06T11:56:54.346Z,100425.31
2023-03-06T12:00:31.500Z,100432.97
2023-03-06T12:04:10.298Z,100421.78
2023-03-06T12:07:30.061Z,100415.25
2023-03-06T12:10:38.400Z,100425.56
2023-03-06T12:14:02.360Z,100420.88
2023-03-06T12:17:31.668Z,100416.31
2023-03-06T12:20:58.213Z,100418.09
2023-03-06T12:24:11.464Z,100409.66
2023-03-06T12:27:38.137Z,100416.09
2023-03-06T12:30:46.114Z,100407.34
2023-03-06T12:33:50.602Z,100401.88
2023-03-06T12:37:01.220Z,100397.78
2023-03-06T12:40:49.293Z,100395.47
2023-03-06T12:44:28.417Z,100407.56
2023-03-06T12:47:33.133Z,100400.44
2023-03-06T12:50:35.624Z,100398.03
2023-03-06T12:53:37.827Z,100394.88
2023-03-06T12:56:40.046Z,100388.28
2023-03-06T12:59:49.377Z,100387.56
2023-03-06T13:03:06.334Z,100386.47
2023-03-06T13:06:45.019Z,100398.22
2023-03-06T13:10:21.456Z,100391.31
2023-03-06T13:13:31.932Z,100391.97
2023-03-06T13:16:34.700Z,100390.59
2023-03-06T13:19:36.357Z,100393.16
2023-03-06T13:22:37.791Z,100389.31
2023-03-06T13:25:47.821Z,100381.19
2023-03-06T13:28:52.327Z,100383.94
2023-03-06T13:31:53.674Z,100382.22
2023-03-06T13:34:55.074Z,100385.78
2023-03-06T13:37:57.605Z,100386.91
2023-03-06T13:41:20.733Z,100384.56
2023-03-06T13:44:25.273Z,100370.00
2023-03-06T13:48:01.432Z,100383.19
2023-03-06T13:51:15.068Z,100375.94
2023-03-06T13:54:44.206Z,100373.44
2023-03-06T13:58:17.507Z,100372.22
2023-03-06T14:01:49.958Z,100365.44
2023-03-06T14:05:02.291Z,100364.00
2023-03-06T14:08:13.596Z,100359.81
2023-03-06T14:11:20.777Z,100358.78
2023-03-06T14:14:35.530Z,100357.03
2023-03-06T14:17:37.927Z,100355.28
2023-03-06T14:20:43.627Z,100352.09
2023-03-06T14:23:45.030Z,100349.13
2023-03-06T14:26:50.274Z,100346.03
2023-03-06T14:30:05.169Z,100346.03
2023-03-06T14:33:10.730Z,100334.03
2023-03-06T14:36:15.246Z,100339.72
2023-03-06T14:39:41.763Z,100331.41
2023-03-06T14:42:43.240Z,100329.16
2023-03-06T14:45:55.064Z,100323.97
2023-03-06T14:48:58.902Z,100327.13
2023-03-06T14:52:01.117Z,100326.69
2023-03-06T14:55:03.168Z,100324.72
2023-03-06T14:58:15.272Z,100328.53
2023-03-06T15:01:34.720Z,100319.72
2023-03-06T15:04:45.231Z,100330.31
2023-03-06T15:07:46.918Z,100318.72
2023-03-06T15:10:58.356Z,100325.09
2023-03-06T15:14:04.511Z,100314.09
2023-03-06T15:17:17.976Z,100318.38
2023-03-06T15:20:53.535Z,100314.22
2023-03-06T15:23:57.122Z,100302.22
2023-03-06T15:27:02.941Z,100306.66
2023-03-06T15:30:21.974Z,100310.13
2023-03-06T15:33:26.368Z,100299.16
2023-03-06T15:36:30.374Z,100304.41
2023-03-06T15:39:34.756Z,100299.59
2023-03-06T15:42:36.376Z,100293.63
2023-03-06T15:45:37.827Z,100289.59
2023-03-06T15:48:39.244Z,100291.22
2023-03-06T15:51:40.883Z,100293.13
2023-03-06T15:54:42.286Z,100287.28
2023-03-06T15:57:53.184Z,100283.13
2023-03-06T16:00:54.649Z,100284.50
2023-03-06T16:03:56.107Z,100282.53
2023-03-06T16:06:57.579Z,100285.53
2023-03-06T16:09:58.974Z,100280.47
2023-03-06T16:13:06.559Z,100277.31
2023-03-06T16:16:17.774Z,100280.34
2023-03-06T16:19:26.279Z,100276.56
2023-03-06T16:22:28.646Z,100270.16
2023-03-06T16:25:30.044Z,100267.94
2023-03-06T16:28:32.352Z,100262.22
2023-03-06T16:31:33.898Z,100265.19
2023-03-06T16:34:35.359Z,100259.56
2023-03-06T16:37:36.715Z,100259.84
2023-03-06T16:40:38.872Z,100253.25
2023-03-06T16:43:40.281Z,100254.06
2023-03-06T16:46:43.936Z,100250.69
2023-03-06T16:49:45.420Z,100247.50
2023-03-06T16:52:46.871Z,100246.84
2023-03-06T16:55:48.285Z,100253.84
2023-03-06T16:58:49.738Z,100249.56
2023-03-06T17:01:51.168Z,100253.94
2023-03-06T17:04:52.552Z,100249.78
2023-03-06T17:07:54.136Z,100248.13
2023-03-06T17:10:55.773Z,100243.31
2023-03-06T17:13:57.154Z,100250.16
2023-03-06T17:16:58.581Z,100240.88
2023-03-06T17:20:00.182Z,100237.72
2023-03-06T17:23:01.577Z,100235.22
2023-03-06T17:26:11.917Z,100245.47
2023-03-06T17:29:13.301Z,100240.63
2023-03-06T17:32:14.763Z,100243.34
2023-03-06T17:35:16.563Z,100249.22
2023-03-06T17:38:17.932Z,100237.50
2023-03-06T17:41:19.489Z,100239.16
2023-03-06T17:44:20.866Z,100231.63
2023-03-06T17:47:22.265Z,100234.25
2023-03-06T17:50:23.792Z,100233.59
2023-03-06T17:53:25.246Z,100232.84
2023-03-06T17:56:27.055Z,100229.47
2023-03-06T17:59:28.492Z,100231.22
2023-03-06T18:02:29.877Z,100227.91
2023-03-06T18:05:31.499Z,100223.75
2023-03-06T18:08:32.864Z,100218.81
2023-03-06T18:11:34.269Z,100214.09
2023-03-06T18:14:35.756Z,100207.53
2023-03-06T18:17:37.216Z,100206.88
2023-03-06T18:20:41.496Z,100194.16
2023-03-06T18:23:43.061Z,100185.81
2023-03-06T18:26:44.456Z,100179.88
2023-03-06T18:29:45.817Z,100176.50
2023-03-06T18:32:47.210Z,100169.78
2023-03-06T18:35:48.634Z,100169.06
2023-03-06T18:38:50.184Z,100165.00
2023-03-06T18:41:51.575Z,100166.09
2023-03-06T18:44:52.946Z,100165.44
2023-03-06T18:47:54.747Z,100156.22
2023-03-06T18:50:56.338Z,100153.06
2023-03-06T18:53:59.458Z,100142.34
2023-03-06T18:57:00.877Z,100144.06
2023-03-06T19:00:02.302Z,100137.44
2023-03-06T19:03:03.773Z,100138.13
2023-03-06T19:06:07.840Z,100136.50
2023-03-06T19:09:09.249Z,100129.09
2023-03-06T19:12:10.624Z,100121.72
2023-03-06T19:15:12.114Z,100113.47
2023-03-06T19:18:15.719Z,100112.03
2023-03-06T19:21:22.155Z,100107.22
2023-03-06T19:24:23.908Z,100103.28
2023-03-06T19:27:25.286Z,100096.66
2023-03-06T19:30:26.658Z,100096.56
2023-03-06T19:33:28.066Z,100090.75
2023-03-06T19:36:32.372Z,100090.78
2023-03-06T19:39:34.945Z,100087.59
2023-03-06T19:42:36.343Z,100082.59
2023-03-06T19:45:42.066Z,100080.16
2023-03-06T19:48:43.839Z,100069.28
2023-03-06T19:51:45.344Z,100065.13
2023-03-06T19:54:46.722Z,100058.34
2023-03-06T19:57:48.151Z,100056.56
2023-03-06T20:00:49.530Z,100046.38
2023-03-06T20:03:54.268Z,100033.59
2023-03-06T20:06:55.672Z,100026.06
2023-03-06T20:09:57.168Z,100025.31
2023-03-06T20:12:58.546Z,100015.13
2023-03-06T20:16:03.121Z,100006.66
2023-03-06T20:19:05.364Z,100000.78
2023-03-06T20:22:07.088Z,99999.13
2023-03-06T20:25:08.602Z,99996.66
2023-03-06T20:28:10.052Z,99979.81
2023-03-06T20:31:17.576Z,99972.25
2023-03-06T20:34:19.075Z,99966.38
2023-03-06T20:37:20.466Z,99960.53
2023-03-06T20:40:21.893Z,99957.88
2023-03-06T20:43:23.822Z,99958.66
2023-03-06T20:46:25.600Z,99950.88
2023-03-06T20:49:27.430Z,99943.06
2023-03-06T20:52:28.883Z,99937.06
2023-03-06T20:55:30.287Z,99930.13
2023-03-06T20:58:32.832Z,99924.16
2023-03-06T21:01:40.613Z,99924.97
2023-03-06T21:04:44.776Z,99912.19
2023-03-06T21:07:46.238Z,99907.03
2023-03-06T21:10:47.692Z,99907.75
2023-03-06T21:13:49.199Z,99907.75
2023-03-06T21:16:50.621Z,99902.50
2023-03-06T21:19:51.988Z,99897.22
2023-03-06T21:22:53.749Z,99883.69
2023-03-06T21:25:55.145Z,99882.81
2023-03-06T21:28:57.411Z,99866.59
2023-03-06T21:31:58.791Z,99866.53
2023-03-06T21:35:00.182Z,99860.53
2023-03-06T21:38:01.592Z,99857.94
2023-03-06T21:41:08.505Z,99845.06
2023-03-06T21:44:10.609Z,99834.81
2023-03-06T21:47:12.006Z,99836.38
2023-03-06T21:50:13.713Z,99832.06
2023-03-06T21:53:15.111Z,99826.09
2023-03-06T21:56:19.057Z,99812.53
2023-03-06T21:59:20.557Z,99809.91
2023-03-06T22:02:22.030Z,99793.75
2023-03-06T22:05:24.611Z,99795.41
2023-03-06T22:08:25.985Z,99779.19
2023-03-06T22:11:29.133Z,99778.25
2023-03-06T22:14:30.506Z,99763.78
2023-03-06T22:17:32.242Z,99767.28
2023-03-06T22:20:33.646Z,99754.75
2023-03-06T22:23:35.380Z,99757.47
2023-03-06T22:26:36.786Z,99739.84
2023-03-06T22:29:38.236Z,99744.97
2023-03-06T22:32:39.863Z,99725.75
2023-03-06T22:35:41.333Z,99727.72
2023-03-06T22:38:44.794Z,99717.03
2023-03-06T22:41:46.177Z,99707.25
2023-03-06T22:44:47.557Z,99700.59
2023-03-06T22:47:48.956Z,99687.19
2023-03-06T22:50:50.320Z,99682.31
2023-03-06T22:53:52.081Z,99669.66
2023-03-06T22:56:53.489Z,99667.50
2023-03-06T22:59:54.919Z,99665.88
2023-03-06T23:02:56.282Z,99653.28
2023-03-06T23:05:58.063Z,99645.59
2023-03-06T23:09:09.274Z,99636.47
2023-03-06T23:12:29.337Z,99632.19
2023-03-06T23:15:49.415Z,99629.75
2023-03-06T23:19:09.633Z,99623.00
2023-03-06T23:22:29.326Z,99617.81
2023-03-06T23:25:49.153Z,99612.72
2023-03-06T23:28:50.799Z,99603.66
2023-03-06T23:31:52.269Z,99592.53
2023-03-06T23:34:53.708Z,99585.69
2023-03-06T23:37:55.129Z,99573.13
2023-03-06T23:41:01.970Z,99565.44
2023-03-06T23:44:03.830Z,99563.69
2023-03-06T23:47:05.509Z,99562.91
2023-03-06T23:50:07.252Z,99554.41
2023-03-06T23:53:08.902Z,99554.41
2023-03-06T23:56:10.990Z,99538.28
2023-03-06T23:59:12.486Z,99538.94
